Time;durP1;ratioP1;P1;durP2;ratioP2;P2;SDS_P1;SDS_P2;PMS_P1;PMS_P2;Temp;Humidity;BMP_temperature;BMP_pressure;BME280_temperature;BME280_humidity;BME280_pressure;Samples;Min_cycle;Max_cycle;Signal;HPM_P1;HPM_P2
2022/12/07 00:01:12;;;;;;;24.20;21.80;;;6.90;99.90;;;;;;5072957;28;20178;-61
2022/12/07 00:03:39;;;;;;;23.10;16.80;;;6.90;99.90;;;;;;5074517;28;20174;-61
2022/12/07 00:06:08;;;;;;;25.35;16.67;;;6.90;99.90;;;;;;5076466;28;20167;-61
2022/12/07 00:08:34;;;;;;;21.20;16.40;;;7.00;99.90;;;;;;5076300;28;20200;-61
2022/12/07 00:11:08;;;;;;;21.70;15.55;;;7.00;99.90;;;;;;5075256;28;20209;-61
2022/12/07 00:13:35;;;;;;;23.08;16.27;;;6.90;99.90;;;;;;5076295;28;20694;-61
2022/12/07 00:16:08;;;;;;;19.83;14.93;;;6.90;99.90;;;;;;5076318;28;20264;-61
2022/12/07 00:18:35;;;;;;;25.92;15.55;;;6.90;99.90;;;;;;5076579;28;20257;-61
2022/12/07 00:21:03;;;;;;;23.35;14.95;;;6.80;99.90;;;;;;5076026;28;20289;-61
2022/12/07 00:23:28;;;;;;;24.45;15.30;;;6.80;99.90;;;;;;5076408;28;20196;-61
2022/12/07 00:25:54;;;;;;;20.83;15.38;;;6.60;99.90;;;;;;5076224;28;20193;-61
2022/12/07 00:28:20;;;;;;;24.95;16.42;;;6.60;99.90;;;;;;5076118;28;20186;-61
2022/12/07 00:30:46;;;;;;;22.23;15.38;;;6.60;99.90;;;;;;5074833;28;20268;-61
2022/12/07 00:33:11;;;;;;;21.58;14.90;;;6.60;99.90;;;;;;5075958;28;20273;-61
2022/12/07 00:35:37;;;;;;;29.67;16.05;;;6.70;99.90;;;;;;5076178;28;20182;-61
2022/12/07 00:38:03;;;;;;;22.55;14.70;;;6.70;99.90;;;;;;5076450;28;20178;-64
2022/12/07 00:40:28;;;;;;;26.02;15.50;;;6.60;99.90;;;;;;5075663;28;20210;-61
2022/12/07 00:42:54;;;;;;;21.33;15.68;;;6.50;99.90;;;;;;5075887;28;20285;-61
2022/12/07 00:45:20;;;;;;;22.05;15.75;;;6.60;99.90;;;;;;5075792;28;20209;-61
2022/12/07 00:47:46;;;;;;;24.77;16.17;;;6.60;99.90;;;;;;5074457;28;20331;-61
2022/12/07 00:50:11;;;;;;;29.63;17.88;;;6.70;99.90;;;;;;5075574;28;20693;-61
2022/12/07 00:52:37;;;;;;;29.30;16.77;;;6.70;99.90;;;;;;5075711;28;20643;-61
2022/12/07 00:55:03;;;;;;;23.60;16.73;;;6.70;99.90;;;;;;5075723;28;20181;-60
2022/12/07 00:57:30;;;;;;;23.83;16.23;;;6.90;99.90;;;;;;5074316;28;20194;-61
2022/12/07 00:59:57;;;;;;;22.77;15.30;;;7.00;99.90;;;;;;5075474;28;20264;-61
2022/12/07 01:02:23;;;;;;;21.63;16.23;;;7.10;99.90;;;;;;5074238;28;20225;-61
2022/12/07 01:04:49;;;;;;;27.05;16.77;;;7.20;99.90;;;;;;5075204;28;20602;-61
2022/12/07 01:07:14;;;;;;;24.00;16.77;;;7.20;99.90;;;;;;5075495;28;20175;-61
2022/12/07 01:09:40;;;;;;;32.05;18.25;;;7.40;99.90;;;;;;5074207;28;20196;-61
2022/12/07 01:12:06;;;;;;;29.23;17.25;;;7.30;99.90;;;;;;5074011;28;20632;-61
2022/12/07 01:14:31;;;;;;;28.33;17.83;;;7.30;99.90;;;;;;5074077;28;20186;-63
2022/12/07 01:16:57;;;;;;;21.45;15.70;;;7.20;99.90;;;;;;5075537;28;20170;-62
2022/12/07 01:19:23;;;;;;;26.52;16.55;;;7.20;99.90;;;;;;5074975;28;20709;-61
2022/12/07 01:21:48;;;;;;;22.88;20.25;;;7.40;99.90;;;;;;5074081;28;20175;-61
2022/12/07 01:24:14;;;;;;;28.25;14.40;;;7.30;99.90;;;;;;5074922;28;20212;-61
2022/12/07 01:26:39;;;;;;;26.08;14.73;;;7.30;99.90;;;;;;5075291;28;20182;-61
2022/12/07 01:29:05;;;;;;;22.02;14.20;;;7.30;99.90;;;;;;5074917;28;20182;-61
2022/12/07 01:31:31;;;;;;;25.95;15.38;;;7.40;99.90;;;;;;5074830;28;20171;-61
2022/12/07 01:33:58;;;;;;;23.25;15.32;;;7.30;99.90;;;;;;5075067;28;20178;-61
2022/12/07 01:36:31;;;;;;;24.83;14.68;;;7.00;99.90;;;;;;5074984;28;20166;-61
2022/12/07 01:39:00;;;;;;;25.15;15.02;;;7.10;99.90;;;;;;5074746;28;20213;-61
2022/12/07 01:41:29;;;;;;;25.02;15.27;;;7.30;99.90;;;;;;5074747;28;20177;-61
2022/12/07 01:44:16;;;;;;;28.40;14.85;;;7.20;99.90;;;;;;5074624;28;20194;-61
2022/12/07 01:46:44;;;;;;;17.60;13.23;;;7.10;99.90;;;;;;5074686;28;20197;-61
2022/12/07 01:49:16;;;;;;;28.75;21.52;;;7.30;99.90;;;;;;5074643;28;20175;-61
2022/12/07 01:51:43;;;;;;;19.50;17.45;;;7.40;99.90;;;;;;5074601;28;20162;-61
2022/12/07 01:54:12;;;;;;;20.17;18.08;;;7.40;99.90;;;;;;5074554;28;20265;-61
2022/12/07 01:56:42;;;;;;;16.52;11.57;;;7.40;99.90;;;;;;5074190;28;20182;-61
2022/12/07 01:59:08;;;;;;;18.88;11.85;;;7.40;99.90;;;;;;5074215;28;20305;-61
2022/12/07 02:01:33;;;;;;;20.20;12.13;;;7.50;99.90;;;;;;5073019;28;20257;-61
2022/12/07 02:03:59;;;;;;;16.88;10.88;;;7.40;99.90;;;;;;5074341;28;20182;-61
2022/12/07 02:06:26;;;;;;;25.10;11.77;;;7.30;99.90;;;;;;5073000;28;20174;-61
2022/12/07 02:08:52;;;;;;;16.45;10.82;;;7.20;99.90;;;;;;5074004;28;20619;-60
2022/12/07 02:11:18;;;;;;;18.55;11.18;;;7.10;99.90;;;;;;5074273;28;20179;-61
2022/12/07 02:13:45;;;;;;;17.20;11.13;;;7.20;99.90;;;;;;5072663;28;20640;-61
2022/12/07 02:16:27;;;;;;;19.40;11.15;;;7.20;99.90;;;;;;5074127;28;20178;-62
2022/12/07 02:19:09;;;;;;;25.25;11.85;;;7.20;99.90;;;;;;5073909;28;20172;-61
2022/12/07 02:21:42;;;;;;;21.60;11.93;;;7.10;99.90;;;;;;5073897;28;20614;-61
2022/12/07 02:24:34;;;;;;;17.88;10.63;;;7.30;99.90;;;;;;5073915;28;20189;-61
2022/12/07 02:27:12;;;;;;;15.35;10.75;;;7.30;99.90;;;;;;5073711;28;20182;-61
2022/12/07 02:29:58;;;;;;;15.75;11.55;;;7.30;99.90;;;;;;5072561;28;20181;-61
2022/12/07 02:32:42;;;;;;;20.27;11.98;;;7.40;99.90;;;;;;5073553;28;20170;-61
2022/12/07 02:35:31;;;;;;;19.27;11.27;;;7.50;99.90;;;;;;5073694;28;20230;-61
2022/12/07 02:38:15;;;;;;;24.92;12.07;;;7.50;99.90;;;;;;5067980;28;20185;-61
2022/12/07 02:40:55;;;;;;;17.50;11.15;;;7.50;99.90;;;;;;5073319;28;20568;-61
2022/12/07 02:43:27;;;;;;;19.13;11.70;;;7.60;99.90;;;;;;5073762;28;20210;-61
2022/12/07 02:45:57;;;;;;;26.88;13.00;;;7.50;99.90;;;;;;5073652;28;20280;-61
2022/12/07 02:48:24;;;;;;;22.85;12.43;;;7.50;99.90;;;;;;5072496;28;20250;-61
2022/12/07 02:50:54;;;;;;;20.80;11.85;;;7.50;99.90;;;;;;5073371;28;20265;-61
2022/12/07 02:53:37;;;;;;;22.15;11.32;;;7.50;99.90;;;;;;5073581;28;20210;-61
2022/12/07 02:56:16;;;;;;;17.58;11.32;;;7.50;99.90;;;;;;5073546;28;20228;-60
2022/12/07 02:58:53;;;;;;;20.42;11.98;;;7.50;99.90;;;;;;5072113;28;20254;-61
2022/12/07 03:01:46;;;;;;;19.20;11.60;;;7.50;99.90;;;;;;5073274;28;20262;-61
2022/12/07 03:04:33;;;;;;;20.27;12.32;;;7.50;99.90;;;;;;5073497;28;20620;-61
2022/12/07 03:07:06;;;;;;;21.15;12.30;;;7.50;99.90;;;;;;5073301;28;20165;-61
2022/12/07 03:09:52;;;;;;;18.80;12.35;;;7.50;99.90;;;;;;5073273;28;20236;-61
2022/12/07 03:12:25;;;;;;;24.05;13.50;;;7.60;99.90;;;;;;5073180;28;20645;-61
2022/12/07 03:15:10;;;;;;;18.20;11.95;;;7.60;99.90;;;;;;5073311;28;20235;-60
2022/12/07 03:17:39;;;;;;;19.92;13.68;;;7.60;99.90;;;;;;5073107;28;20165;-61
2022/12/07 03:20:09;;;;;;;24.52;13.35;;;7.60;99.90;;;;;;5072965;28;20209;-61
2022/12/07 03:22:38;;;;;;;25.17;13.80;;;7.60;99.90;;;;;;5073406;28;20573;-61
2022/12/07 03:25:09;;;;;;;21.02;13.23;;;7.60;99.90;;;;;;5073149;28;20193;-60
2022/12/07 03:27:40;;;;;;;22.08;14.07;;;7.50;99.90;;;;;;5073068;28;20713;-61
2022/12/07 03:30:32;;;;;;;22.52;13.80;;;7.40;99.90;;;;;;5073157;28;20243;-61
2022/12/07 03:33:01;;;;;;;22.58;13.73;;;7.40;99.90;;;;;;5068280;28;20186;-61
2022/12/07 03:36:02;;;;;;;20.83;13.05;;;7.20;99.90;;;;;;5073098;28;20175;-61
2022/12/07 03:38:45;;;;;;;24.23;13.55;;;7.20;99.90;;;;;;5052918;28;20535;-61
2022/12/07 03:41:25;;;;;;;21.45;13.68;;;7.20;99.90;;;;;;5076909;28;20546;-61
2022/12/07 03:43:53;;;;;;;22.63;13.73;;;7.20;99.90;;;;;;5077041;28;20170;-60
2022/12/07 03:46:23;;;;;;;22.48;14.05;;;7.10;99.90;;;;;;5076954;28;20639;-61
2022/12/07 03:49:12;;;;;;;22.50;13.65;;;6.80;99.90;;;;;;5076813;28;20181;-61
2022/12/07 03:51:41;;;;;;;21.13;14.07;;;7.00;99.90;;;;;;5071276;28;20186;-61
2022/12/07 03:54:19;;;;;;;25.80;14.63;;;7.10;99.90;;;;;;5076891;28;20179;-61
2022/12/07 03:56:47;;;;;;;21.98;13.02;;;7.00;99.90;;;;;;5076796;28;20173;-61
2022/12/07 03:59:15;;;;;;;19.48;12.88;;;7.10;99.90;;;;;;5076614;28;20226;-61
2022/12/07 04:01:51;;;;;;;26.35;13.40;;;7.20;99.90;;;;;;5076488;28;20173;-61
2022/12/07 04:04:17;;;;;;;20.55;12.65;;;7.20;99.90;;;;;;5076864;28;20172;-61
2022/12/07 04:06:43;;;;;;;24.25;11.88;;;7.30;99.90;;;;;;5076576;28;20256;-61
2022/12/07 04:09:08;;;;;;;20.25;11.68;;;7.40;99.90;;;;;;5076418;28;20175;-61
2022/12/07 04:11:34;;;;;;;22.33;10.70;;;7.40;99.90;;;;;;5076294;28;20178;-62
2022/12/07 04:14:18;;;;;;;19.88;16.08;;;7.10;99.90;;;;;;5076340;28;20184;-61
2022/12/07 04:16:45;;;;;;;23.02;10.98;;;7.10;99.90;;;;;;5076277;28;20617;-61
2022/12/07 04:19:11;;;;;;;22.38;10.77;;;7.10;99.90;;;;;;5076301;28;20206;-61
2022/12/07 04:21:37;;;;;;;21.00;10.52;;;7.10;99.90;;;;;;5076212;28;20665;-62
2022/12/07 04:24:03;;;;;;;17.20;10.05;;;7.00;99.90;;;;;;5074828;28;20178;-63
2022/12/07 04:26:29;;;;;;;23.38;10.10;;;6.90;99.90;;;;;;5076060;28;20264;-61
2022/12/07 04:28:54;;;;;;;20.88;9.90;;;6.80;99.90;;;;;;5075952;28;20202;-61
2022/12/07 04:31:20;;;;;;;20.85;9.88;;;6.70;99.90;;;;;;5058284;28;20635;-61
2022/12/07 04:33:46;;;;;;;19.00;8.88;;;6.70;99.90;;;;;;5076136;28;20539;-61
2022/12/07 04:36:12;;;;;;;19.73;9.80;;;6.70;99.90;;;;;;5074688;28;20323;-62
2022/12/07 04:38:37;;;;;;;17.55;9.80;;;6.70;99.90;;;;;;5075941;28;20178;-61
2022/12/07 04:41:07;;;;;;;25.50;10.65;;;6.70;99.90;;;;;;5075724;28;20267;-60
2022/12/07 04:43:33;;;;;;;19.27;9.90;;;6.60;99.90;;;;;;5074598;28;20182;-61
2022/12/07 04:45:59;;;;;;;18.92;10.13;;;6.50;99.90;;;;;;5075921;28;20529;-61
2022/12/07 04:48:24;;;;;;;17.90;9.50;;;6.50;99.90;;;;;;5075841;28;20189;-61
2022/12/07 04:50:50;;;;;;;16.73;9.70;;;6.50;99.90;;;;;;5075569;28;20186;-61
2022/12/07 04:53:16;;;;;;;16.05;9.73;;;6.50;99.90;;;;;;5075715;28;20643;-60
2022/12/07 04:55:41;;;;;;;16.65;9.70;;;6.60;99.90;;;;;;5075540;28;20284;-61
2022/12/07 04:58:07;;;;;;;17.88;10.13;;;6.50;99.90;;;;;;5075483;28;20189;-61
2022/12/07 05:00:33;;;;;;;19.65;10.52;;;6.60;99.90;;;;;;5074410;28;20296;-61
2022/12/07 05:02:58;;;;;;;21.20;10.93;;;6.70;99.90;;;;;;5075624;28;20178;-61
2022/12/07 05:05:24;;;;;;;26.27;12.05;;;6.80;99.90;;;;;;5075375;28;20599;-61
2022/12/07 05:07:50;;;;;;;20.15;11.32;;;6.90;99.90;;;;;;5075262;28;20663;-61
2022/12/07 05:10:16;;;;;;;19.38;11.13;;;6.80;99.90;;;;;;5075232;28;20180;-60
2022/12/07 05:12:42;;;;;;;19.88;10.38;;;6.90;99.90;;;;;;5075216;28;20256;-61
2022/12/07 05:15:08;;;;;;;17.40;10.80;;;7.00;99.90;;;;;;5075414;28;20225;-61
2022/12/07 05:17:33;;;;;;;21.20;11.70;;;7.00;99.90;;;;;;5075323;28;20227;-61
2022/12/07 05:19:59;;;;;;;14.40;10.05;;;6.90;99.90;;;;;;5075115;28;20221;-61
2022/12/07 05:22:28;;;;;;;18.33;10.82;;;6.90;99.90;;;;;;5073902;28;20188;-62
2022/12/07 05:24:57;;;;;;;21.35;10.38;;;7.00;99.90;;;;;;5074971;28;20207;-61
2022/12/07 05:27:23;;;;;;;16.50;9.95;;;7.00;99.90;;;;;;5074835;28;20166;-61
2022/12/07 05:29:50;;;;;;;20.17;10.55;;;7.10;99.90;;;;;;5074701;28;20586;-61
2022/12/07 05:32:16;;;;;;;13.98;9.45;;;7.20;99.90;;;;;;5075161;28;20192;-60
2022/12/07 05:34:45;;;;;;;16.02;10.32;;;7.10;99.90;;;;;;5074973;28;20257;-61
2022/12/07 05:37:11;;;;;;;15.95;9.93;;;7.10;99.90;;;;;;5074921;28;20170;-61
2022/12/07 05:39:40;;;;;;;20.00;11.30;;;7.10;99.90;;;;;;5073400;28;20209;-61
2022/12/07 05:42:11;;;;;;;24.75;12.75;;;7.20;99.90;;;;;;5074603;28;20175;-61
2022/12/07 05:44:38;;;;;;;18.40;11.23;;;7.20;99.90;;;;;;5073577;28;20170;-61
2022/12/07 05:47:04;;;;;;;18.95;10.77;;;7.30;99.90;;;;;;5074993;28;20185;-61
2022/12/07 05:49:29;;;;;;;29.27;12.77;;;7.30;99.90;;;;;;5074578;28;20178;-61
2022/12/07 05:51:55;;;;;;;18.00;11.27;;;7.10;99.90;;;;;;5074425;28;20174;-61
2022/12/07 05:54:20;;;;;;;21.48;11.13;;;7.00;99.90;;;;;;5074286;28;20240;-61
2022/12/07 05:56:46;;;;;;;19.42;11.27;;;7.00;99.90;;;;;;5073414;28;20181;-61
2022/12/07 05:59:24;;;;;;;16.65;10.02;;;6.90;99.90;;;;;;5074381;28;20256;-61
2022/12/07 06:01:55;;;;;;;15.40;10.15;;;6.90;99.90;;;;;;5073894;28;20661;-62
2022/12/07 06:04:22;;;;;;;17.08;9.88;;;6.70;99.90;;;;;;5072974;28;20182;-60
2022/12/07 06:06:48;;;;;;;16.45;9.10;;;6.70;99.90;;;;;;5074007;28;20257;-60
2022/12/07 06:09:14;;;;;;;16.70;9.63;;;6.60;99.90;;;;;;5073993;28;20181;-60
2022/12/07 06:14:25;;;;;;;18.60;10.48;;;6.90;99.90;;;;;;5074309;28;20603;-60
2022/12/07 06:16:50;;;;;;;20.75;10.52;;;6.90;99.90;;;;;;5074041;28;20209;-60
2022/12/07 06:19:16;;;;;;;18.70;9.77;;;6.90;99.90;;;;;;5073804;28;20226;-60
2022/12/07 06:21:42;;;;;;;12.95;8.80;;;6.90;99.90;;;;;;5073791;28;20185;-60
2022/12/07 06:24:11;;;;;;;18.60;9.45;;;6.90;99.90;;;;;;5073740;28;20220;-60
2022/12/07 06:26:37;;;;;;;22.55;9.57;;;6.90;99.90;;;;;;5073987;28;20580;-60
2022/12/07 06:29:03;;;;;;;17.83;9.43;;;6.90;99.90;;;;;;5073738;28;20643;-60
2022/12/07 06:31:28;;;;;;;12.98;8.68;;;6.90;99.90;;;;;;5073660;28;20209;-60
2022/12/07 06:34:05;;;;;;;17.60;9.38;;;7.00;99.90;;;;;;5073627;28;20177;-60
2022/12/07 06:36:31;;;;;;;17.67;9.00;;;7.00;99.90;;;;;;5073570;28;20644;-60
2022/12/07 06:38:56;;;;;;;14.63;9.60;;;7.00;99.90;;;;;;5073465;28;20173;-60
2022/12/07 06:41:22;;;;;;;22.70;13.27;;;7.00;99.90;;;;;;5073763;28;20178;-60
2022/12/07 06:43:49;;;;;;;23.55;12.30;;;7.00;99.90;;;;;;5073504;28;20181;-60
2022/12/07 06:46:15;;;;;;;18.95;10.93;;;6.90;99.90;;;;;;5073416;28;20190;-60
2022/12/07 06:48:41;;;;;;;16.08;9.77;;;7.00;99.90;;;;;;5073713;28;20171;-60
2022/12/07 06:51:07;;;;;;;17.85;11.02;;;7.10;99.90;;;;;;5073511;28;20177;-60
2022/12/07 06:53:33;;;;;;;16.52;10.15;;;7.00;99.90;;;;;;5073321;28;20190;-60
2022/12/07 06:55:58;;;;;;;13.65;9.13;;;7.00;99.90;;;;;;5073427;28;20190;-60
2022/12/07 06:58:24;;;;;;;13.27;8.98;;;6.90;99.90;;;;;;5073332;28;20178;-60
2022/12/07 07:00:50;;;;;;;15.32;9.05;;;6.80;99.90;;;;;;5073165;28;20225;-60
2022/12/07 07:03:19;;;;;;;18.88;8.95;;;6.80;99.90;;;;;;5073059;28;20194;-60
2022/12/07 07:05:45;;;;;;;15.45;8.30;;;6.60;99.90;;;;;;5073425;28;20185;-60
2022/12/07 07:08:11;;;;;;;15.75;8.27;;;6.60;99.90;;;;;;5073223;28;20186;-60
2022/12/07 07:10:38;;;;;;;15.60;7.45;;;6.50;99.90;;;;;;5073344;28;20233;-60
2022/12/07 07:13:04;;;;;;;18.27;8.05;;;6.50;99.90;;;;;;5072400;28;20261;-60
2022/12/07 07:15:30;;;;;;;14.43;8.00;;;6.40;99.90;;;;;;5072157;28;20189;-60
2022/12/07 07:17:55;;;;;;;12.60;7.30;;;6.30;99.90;;;;;;5073452;28;20174;-60
2022/12/07 07:20:22;;;;;;;12.00;7.22;;;6.40;99.90;;;;;;5073079;28;20308;-60
2022/12/07 07:22:47;;;;;;;16.35;8.13;;;6.30;99.90;;;;;;5073116;28;20212;-60
2022/12/07 07:25:14;;;;;;;14.98;7.20;;;6.20;99.90;;;;;;5073251;28;20224;-60
2022/12/07 07:27:39;;;;;;;14.38;8.30;;;6.20;99.90;;;;;;5071818;28;20177;-60
2022/12/07 07:30:06;;;;;;;15.20;7.65;;;6.20;99.90;;;;;;5071267;28;20223;-60
2022/12/07 07:32:32;;;;;;;17.85;7.82;;;6.20;99.90;;;;;;5072867;28;20177;-60
2022/12/07 07:34:57;;;;;;;15.50;7.68;;;6.20;99.90;;;;;;5072610;28;20181;-60
2022/12/07 07:37:23;;;;;;;17.52;8.40;;;6.10;99.90;;;;;;5072537;28;20181;-60
2022/12/07 07:39:49;;;;;;;17.55;8.30;;;6.00;99.90;;;;;;5072403;28;20224;-60
2022/12/07 07:42:15;;;;;;;13.90;7.80;;;6.00;99.90;;;;;;5072551;28;20638;-60
2022/12/07 07:44:40;;;;;;;21.88;8.82;;;6.00;99.90;;;;;;5072648;28;20209;-60
2022/12/07 07:47:06;;;;;;;17.02;8.68;;;6.00;99.90;;;;;;5072623;28;20173;-60
2022/12/07 07:49:32;;;;;;;14.50;8.30;;;5.90;99.90;;;;;;5072553;28;20182;-61
2022/12/07 07:51:57;;;;;;;31.92;9.55;;;5.80;99.90;;;;;;5072604;28;20627;-60
2022/12/07 07:54:23;;;;;;;21.95;9.68;;;5.90;99.90;;;;;;5073057;28;20208;-60
2022/12/07 07:56:49;;;;;;;19.75;9.05;;;6.10;99.90;;;;;;5072934;28;20180;-60
2022/12/07 07:59:15;;;;;;;21.92;9.45;;;6.20;99.90;;;;;;5072953;28;20247;-60
2022/12/07 08:01:41;;;;;;;25.35;10.25;;;6.10;99.90;;;;;;5072638;28;20182;-60
2022/12/07 08:04:07;;;;;;;21.83;9.95;;;6.20;99.90;;;;;;5072663;28;20273;-60
2022/12/07 08:06:32;;;;;;;20.10;10.25;;;6.40;99.90;;;;;;5072745;28;20174;-60
2022/12/07 08:08:58;;;;;;;19.35;9.98;;;6.60;99.90;;;;;;5072810;28;20174;-60
2022/12/07 08:11:24;;;;;;;16.00;9.82;;;6.50;99.90;;;;;;5072707;28;20231;-61
2022/12/07 08:13:50;;;;;;;19.30;9.50;;;6.60;99.90;;;;;;5072541;28;20661;-61
2022/12/07 08:16:16;;;;;;;18.88;9.52;;;6.80;99.90;;;;;;5071390;28;20675;-60
2022/12/07 08:18:42;;;;;;;21.83;10.13;;;6.80;99.90;;;;;;5072476;28;20177;-60
2022/12/07 08:21:12;;;;;;;19.38;9.02;;;7.00;99.90;;;;;;5072481;28;20212;-60
2022/12/07 08:23:39;;;;;;;16.27;9.45;;;7.10;99.90;;;;;;5071599;28;20674;-60
2022/12/07 08:26:06;;;;;;;20.50;12.93;;;7.30;99.90;;;;;;5076066;28;20263;-60
2022/12/07 08:28:32;;;;;;;19.00;9.70;;;7.10;99.90;;;;;;5076026;28;20162;-60
2022/12/07 08:31:07;;;;;;;15.32;8.43;;;6.90;99.90;;;;;;5076289;28;20239;-60
2022/12/07 08:33:33;;;;;;;18.27;8.85;;;7.10;99.90;;;;;;5076190;28;20630;-61
2022/12/07 08:36:04;;;;;;;24.08;9.13;;;7.40;99.90;;;;;;5076054;28;20227;-60
2022/12/07 08:38:29;;;;;;;19.17;8.63;;;7.50;99.90;;;;;;5075982;28;20244;-60
2022/12/07 08:40:58;;;;;;;17.98;8.60;;;7.60;99.90;;;;;;5075700;28;20210;-60
2022/12/07 08:43:24;;;;;;;20.95;7.63;;;7.70;99.90;;;;;;5075954;28;20171;-60
2022/12/07 08:46:12;;;;;;;26.75;8.55;;;7.70;99.90;;;;;;5075891;28;20581;-60
2022/12/07 08:48:52;;;;;;;21.02;8.05;;;7.70;99.90;;;;;;5075798;28;20185;-60
2022/12/07 08:51:19;;;;;;;11.77;7.10;;;7.70;99.90;;;;;;5075745;28;20184;-60
2022/12/07 08:53:49;;;;;;;13.27;6.70;;;7.80;99.90;;;;;;5075813;28;20171;-60
2022/12/07 08:56:15;;;;;;;20.00;7.25;;;7.70;99.90;;;;;;5075756;28;20174;-61
2022/12/07 08:58:41;;;;;;;13.02;6.93;;;7.70;99.90;;;;;;5075558;28;20531;-60
2022/12/07 09:01:06;;;;;;;14.75;6.45;;;7.60;99.90;;;;;;5075522;28;20206;-60
2022/12/07 09:03:32;;;;;;;16.33;6.72;;;7.60;99.90;;;;;;5075518;28;20175;-60
2022/12/07 09:05:59;;;;;;;11.60;7.13;;;7.60;99.90;;;;;;5075425;28;20174;-61
2022/12/07 09:08:30;;;;;;;18.10;7.47;;;7.70;99.90;;;;;;5075683;28;20182;-61
2022/12/07 09:10:56;;;;;;;15.20;7.47;;;7.70;99.90;;;;;;5075641;28;20268;-60
2022/12/07 09:13:22;;;;;;;24.00;10.10;;;7.80;99.90;;;;;;5075699;28;20305;-61
2022/12/07 09:15:51;;;;;;;22.13;10.82;;;7.50;99.90;;;;;;5075200;28;20640;-61
2022/12/07 09:18:20;;;;;;;16.13;9.75;;;7.60;99.90;;;;;;5075710;28;20202;-60
2022/12/07 09:20:46;;;;;;;15.70;9.88;;;7.50;99.90;;;;;;5075306;28;20229;-60
2022/12/07 09:23:11;;;;;;;17.02;8.65;;;7.60;99.90;;;;;;5075212;28;20634;-60
2022/12/07 09:25:37;;;;;;;19.13;9.38;;;7.50;99.90;;;;;;5075150;28;20193;-60
2022/12/07 09:28:02;;;;;;;24.38;9.23;;;7.30;99.90;;;;;;5075068;28;20260;-60
2022/12/07 09:30:28;;;;;;;16.60;8.05;;;7.40;99.90;;;;;;5074918;28;20574;-60
2022/12/07 09:32:55;;;;;;;22.80;14.35;;;7.40;99.90;;;;;;5074932;28;20196;-61
2022/12/07 09:35:21;;;;;;;21.52;16.10;;;7.30;99.90;;;;;;5074023;28;20707;-61
2022/12/07 09:37:47;;;;;;;16.58;12.82;;;7.30;99.90;;;;;;5074806;28;20202;-60
2022/12/07 09:40:17;;;;;;;29.20;19.23;;;7.50;99.90;;;;;;5074806;28;20248;-61
2022/12/07 09:42:47;;;;;;;18.98;10.50;;;7.40;99.90;;;;;;5075050;28;20639;-60
2022/12/07 09:45:26;;;;;;;20.35;10.32;;;7.50;99.90;;;;;;5074637;28;20181;-61
2022/12/07 09:47:52;;;;;;;17.08;9.18;;;7.50;99.90;;;;;;5074845;28;20182;-60
2022/12/07 09:50:24;;;;;;;18.98;9.00;;;7.60;99.90;;;;;;5074660;28;20174;-60
2022/12/07 09:52:51;;;;;;;26.00;9.75;;;7.80;99.90;;;;;;5074779;28;20634;-61
2022/12/07 09:55:24;;;;;;;16.88;9.27;;;7.70;99.90;;;;;;5074504;28;20228;-61
2022/12/07 09:57:53;;;;;;;17.23;8.80;;;7.70;99.90;;;;;;5074449;28;20178;-61
2022/12/07 10:00:21;;;;;;;13.88;9.30;;;7.80;99.90;;;;;;5074156;28;20199;-60
2022/12/07 10:02:55;;;;;;;15.23;8.82;;;8.00;99.90;;;;;;5074429;28;20178;-60
2022/12/07 10:05:30;;;;;;;16.95;9.45;;;8.00;99.90;;;;;;5074530;28;20174;-61
2022/12/07 10:07:56;;;;;;;14.52;9.18;;;7.90;99.90;;;;;;5074280;28;20192;-60
2022/12/07 10:10:33;;;;;;;17.17;9.18;;;8.00;99.90;;;;;;5074211;28;20535;-61
2022/12/07 10:13:05;;;;;;;19.15;13.23;;;8.00;99.90;;;;;;5074353;28;20178;-60
2022/12/07 10:15:47;;;;;;;23.05;9.13;;;8.00;99.90;;;;;;5074043;28;20182;-60
2022/12/07 10:18:37;;;;;;;17.85;9.48;;;8.00;99.90;;;;;;5074089;28;20209;-60
2022/12/07 10:21:08;;;;;;;15.57;12.00;;;8.20;99.90;;;;;;5073786;28;20255;-60
2022/12/07 10:23:35;;;;;;;19.33;12.43;;;8.20;99.90;;;;;;5074045;28;20181;-60
2022/12/07 10:26:30;;;;;;;15.65;12.63;;;8.00;99.90;;;;;;5073736;28;20210;-60
2022/12/07 10:29:00;;;;;;;14.68;11.95;;;8.10;99.90;;;;;;5073921;28;20196;-61
2022/12/07 10:31:26;;;;;;;16.42;12.07;;;8.20;99.90;;;;;;5073761;28;20167;-60
2022/12/07 10:34:01;;;;;;;16.00;11.48;;;8.40;99.90;;;;;;5073732;28;20239;-60
2022/12/07 10:36:39;;;;;;;15.15;11.25;;;8.70;99.90;;;;;;5073711;28;20177;-60
2022/12/07 10:39:19;;;;;;;16.08;10.27;;;8.80;99.90;;;;;;5073704;28;20167;-60
2022/12/07 10:41:56;;;;;;;13.45;9.70;;;9.00;99.90;;;;;;5073503;28;20194;-60
2022/12/07 10:44:30;;;;;;;13.43;8.55;;;8.90;99.90;;;;;;5073680;28;20170;-60
2022/12/07 10:47:14;;;;;;;12.77;8.95;;;9.00;99.90;;;;;;5073559;28;20166;-60
2022/12/07 10:50:05;;;;;;;12.95;9.20;;;9.10;99.90;;;;;;5073398;28;20304;-60
2022/12/07 10:53:18;;;;;;;13.07;8.88;;;9.40;99.90;;;;;;5073358;28;20270;-60
2022/12/07 10:56:18;;;;;;;12.38;8.25;;;9.70;99.90;;;;;;5073349;28;20520;-60
2022/12/07 10:58:54;;;;;;;12.18;8.00;;;9.90;99.90;;;;;;5052833;28;20190;-61
2022/12/07 11:01:57;;;;;;;10.38;5.70;;;9.90;99.90;;;;;;5073341;28;20186;-60
2022/12/07 11:04:28;;;;;;;17.50;14.70;;;9.80;99.90;;;;;;5071627;28;20261;-61
2022/12/07 11:07:02;;;;;;;12.65;6.72;;;9.30;99.90;;;;;;5073224;28;20163;-60
2022/12/07 11:09:53;;;;;;;8.80;5.80;;;9.00;99.90;;;;;;5073261;28;20186;-60
2022/12/07 11:12:37;;;;;;;13.30;6.38;;;9.20;99.90;;;;;;5073344;28;20178;-60
2022/12/07 11:15:06;;;;;;;13.32;6.32;;;9.30;99.90;;;;;;5073122;28;20666;-61
2022/12/07 11:17:32;;;;;;;10.10;5.32;;;9.30;99.90;;;;;;5073350;28;20182;-60
2022/12/07 11:20:39;;;;;;;9.40;4.82;;;9.40;99.90;;;;;;5073139;28;20259;-60
2022/12/07 11:23:35;;;;;;;9.73;4.70;;;9.50;99.90;;;;;;5073135;28;20638;-60
2022/12/07 11:26:24;;;;;;;9.35;4.78;;;9.50;99.90;;;;;;5073364;28;20560;-61
2022/12/07 11:29:04;;;;;;;11.50;4.90;;;9.40;99.90;;;;;;5072821;28;20555;-60
2022/12/07 11:32:01;;;;;;;7.88;4.93;;;9.40;99.90;;;;;;5073031;28;20249;-60
2022/12/07 11:34:54;;;;;;;9.27;5.20;;;9.40;99.90;;;;;;5073052;28;20185;-60
2022/12/07 11:37:33;;;;;;;7.53;5.30;;;9.30;99.90;;;;;;5073206;28;20163;-61
2022/12/07 11:40:35;;;;;;;8.73;5.72;;;9.40;99.90;;;;;;5072947;28;20604;-61
2022/12/07 11:43:27;;;;;;;10.05;5.95;;;9.40;99.90;;;;;;5073140;28;20493;-61
2022/12/07 11:46:10;;;;;;;9.77;6.15;;;9.30;99.90;;;;;;5073005;28;20179;-60
2022/12/07 11:49:22;;;;;;;8.48;6.43;;;9.30;99.90;;;;;;5072755;28;20174;-61
2022/12/07 11:51:52;;;;;;;9.98;6.65;;;9.40;99.90;;;;;;5050044;28;20195;-60
2022/12/07 11:54:25;;;;;;;10.35;6.65;;;9.30;99.90;;;;;;5072588;28;20202;-60
2022/12/07 11:56:54;;;;;;;7.47;6.57;;;9.10;99.90;;;;;;5072729;28;20182;-61
2022/12/07 11:59:27;;;;;;;13.20;7.07;;;9.30;99.90;;;;;;5073893;28;20543;-60
2022/12/07 12:02:15;;;;;;;9.23;6.25;;;9.40;99.90;;;;;;5076578;28;20253;-61
2022/12/07 12:04:55;;;;;;;9.13;6.78;;;9.50;99.90;;;;;;5076429;28;20239;-60
2022/12/07 12:07:25;;;;;;;9.40;6.10;;;9.40;99.90;;;;;;5076461;28;20172;-60
2022/12/07 12:10:15;;;;;;;12.38;6.63;;;9.50;99.90;;;;;;5076243;28;20183;-60
2022/12/07 12:13:00;;;;;;;8.48;5.85;;;9.50;99.90;;;;;;5076503;28;20257;-60
2022/12/07 12:15:59;;;;;;;10.80;5.85;;;9.40;99.90;;;;;;5076305;28;20170;-61
2022/12/07 12:18:53;;;;;;;9.40;5.28;;;9.50;99.90;;;;;;5076645;28;20166;-60
2022/12/07 12:21:27;;;;;;;8.40;4.80;;;9.40;99.90;;;;;;5076175;28;20195;-60
2022/12/07 12:24:04;;;;;;;7.63;4.30;;;9.40;99.90;;;;;;5075968;28;20543;-60
2022/12/07 12:26:33;;;;;;;7.93;4.47;;;9.50;99.90;;;;;;5076506;28;20536;-60
2022/12/07 12:29:03;;;;;;;9.73;4.63;;;9.20;99.90;;;;;;5076237;28;20574;-60
2022/12/07 12:31:35;;;;;;;6.55;4.38;;;9.10;99.90;;;;;;5076150;28;20650;-60
2022/12/07 12:34:04;;;;;;;8.95;4.70;;;9.30;99.90;;;;;;5076128;28;20174;-60
2022/12/07 12:36:42;;;;;;;9.10;4.43;;;9.40;99.90;;;;;;5075812;28;20170;-60
2022/12/07 12:39:08;;;;;;;8.07;5.68;;;9.40;99.90;;;;;;5076181;28;20627;-60
2022/12/07 12:42:05;;;;;;;8.20;4.72;;;9.50;99.90;;;;;;5075891;28;20190;-60
2022/12/07 12:44:32;;;;;;;10.02;4.70;;;9.60;99.90;;;;;;5075608;28;20269;-60
2022/12/07 12:47:02;;;;;;;6.18;5.03;;;9.60;99.90;;;;;;5075591;28;20178;-61
2022/12/07 12:49:32;;;;;;;7.57;5.05;;;9.40;99.90;;;;;;5075926;28;20174;-61
2022/12/07 12:52:30;;;;;;;7.18;4.65;;;9.30;99.90;;;;;;5075776;28;20226;-60
2022/12/07 12:55:00;;;;;;;10.77;5.60;;;9.40;99.90;;;;;;5075480;28;20185;-60
2022/12/07 12:57:27;;;;;;;9.98;4.97;;;9.70;99.90;;;;;;5075418;28;20186;-61
2022/12/07 12:59:53;;;;;;;9.00;5.05;;;9.90;99.90;;;;;;5075559;28;20293;-60
2022/12/07 13:02:25;;;;;;;10.85;5.60;;;9.90;99.90;;;;;;5075389;28;20258;-61
2022/12/07 13:05:00;;;;;;;8.38;4.72;;;9.90;99.90;;;;;;5075473;28;20166;-60
2022/12/07 13:07:44;;;;;;;8.10;3.92;;;9.90;99.90;;;;;;5075401;28;20583;-60